Aviation Digital Data Service (ADDS)

Output produced by METARs form (0506 UTC 21 January 2019)
found at http://www.aviationweather.gov/metar/data/
 
METAR text: ENZV 210450Z 36006KT 9999 FEW029 SCT040 BKN059 03/01 Q1015
Conditions at: ENZV (STAVANGER/SOLA(A, NO) observed 0450 UTC 21 January 2019
Temperature: 3.0°C (37°F)
Dewpoint: 1.0°C (34°F) [RH = 87%]
Pressure (altimeter): 29.97 inches Hg (1015.0 mb)
Winds: from the N (360 degrees) at 7 MPH (6 knots; 3.1 m/s)
Visibility: 6 or more miles (10+ km)
Ceiling: 5900 feet AGL
Clouds: few clouds at 2900 feet AGL
scattered clouds at 4000 feet AGL
broken clouds at 5900 feet AGL
Weather: no significant weather observed at this time

METAR text: ENZV 210350Z 35007KT 310V020 9999 FEW008 SCT025 BKN044 03/01 Q1014
Conditions at: ENZV (STAVANGER/SOLA(A, NO) observed 0350 UTC 21 January 2019
Temperature: 3.0°C (37°F)
Dewpoint: 1.0°C (34°F) [RH = 87%]
Pressure (altimeter): 29.94 inches Hg (1014.0 mb)
Winds: from the N (350 degrees) at 8 MPH (7 knots; 3.6 m/s)
Visibility: 6 or more miles (10+ km)
Ceiling: 4400 feet AGL
Clouds: few clouds at 800 feet AGL
scattered clouds at 2500 feet AGL
broken clouds at 4400 feet AGL
Weather: no significant weather observed at this time

METAR text: ENZV 210250Z 35012KT 9999 -RA SCT009 BKN092 03/01 Q1014
Conditions at: ENZV (STAVANGER/SOLA(A, NO) observed 0250 UTC 21 January 2019
Temperature: 3.0°C (37°F)
Dewpoint: 1.0°C (34°F) [RH = 87%]
Pressure (altimeter): 29.94 inches Hg (1014.0 mb)
Winds: from the N (350 degrees) at 14 MPH (12 knots; 6.2 m/s)
Visibility: 6 or more miles (10+ km)
Ceiling: 9200 feet AGL
Clouds: scattered clouds at 900 feet AGL
broken clouds at 9200 feet AGL
Weather: -RA  (light rain)

METAR text: ENZV 210150Z 01012KT 9000 -RA FEW010 BKN016 BKN024 03/01 Q1014
Conditions at: ENZV (STAVANGER/SOLA(A, NO) observed 0150 UTC 21 January 2019
Temperature: 3.0°C (37°F)
Dewpoint: 1.0°C (34°F) [RH = 87%]
Pressure (altimeter): 29.94 inches Hg (1014.0 mb)
Winds: from the N (10 degrees) at 14 MPH (12 knots; 6.2 m/s)
Visibility: 6 miles ( 9 km)
Ceiling: 1600 feet AGL
Clouds: few clouds at 1000 feet AGL
broken clouds at 1600 feet AGL
broken clouds at 2400 feet AGL
Weather: -RA  (light rain)

METAR text: ENZV 210050Z 34007KT 9999 FEW006 BKN016 OVC020 03/02 Q1013
Conditions at: ENZV (STAVANGER/SOLA(A, NO) observed 0050 UTC 21 January 2019
Temperature: 3.0°C (37°F)
Dewpoint: 2.0°C (36°F) [RH = 93%]
Pressure (altimeter): 29.91 inches Hg (1013.0 mb)
Winds: from the NNW (340 degrees) at 8 MPH (7 knots; 3.6 m/s)
Visibility: 6 or more miles (10+ km)
Ceiling: 1600 feet AGL
Clouds: few clouds at 600 feet AGL
broken clouds at 1600 feet AGL
overcast cloud deck at 2000 feet AGL
Weather: no significant weather observed at this time

METAR text: ENZV 202350Z 07003KT 020V100 9999 -RA SCT009 BKN011 OVC025 02/01 Q1013
Conditions at: ENZV (STAVANGER/SOLA(A, NO) observed 2350 UTC 20 January 2019
Temperature: 2.0°C (36°F)
Dewpoint: 1.0°C (34°F) [RH = 93%]
Pressure (altimeter): 29.91 inches Hg (1013.0 mb)
Winds: from the ENE (70 degrees) at 3 MPH (3 knots; 1.5 m/s)
Visibility: 6 or more miles (10+ km)
Ceiling: 1100 feet AGL
Clouds: scattered clouds at 900 feet AGL
broken clouds at 1100 feet AGL
overcast cloud deck at 2500 feet AGL
Weather: -RA  (light rain)

METAR text: ENZV 202250Z 02003KT 350V100 9999 -RA BKN011 OVC024 03/02 Q1013
Conditions at: ENZV (STAVANGER/SOLA(A, NO) observed 2250 UTC 20 January 2019
Temperature: 3.0°C (37°F)
Dewpoint: 2.0°C (36°F) [RH = 93%]
Pressure (altimeter): 29.91 inches Hg (1013.0 mb)
Winds: from the NNE (20 degrees) at 3 MPH (3 knots; 1.5 m/s)
Visibility: 6 or more miles (10+ km)
Ceiling: 1100 feet AGL
Clouds: broken clouds at 1100 feet AGL
overcast cloud deck at 2400 feet AGL
Weather: -RA  (light rain)

METAR text: ENZV 202220Z 34007KT 300V010 9000 -SHRA BKN009 OVC012 03/02 Q1013
Conditions at: ENZV (STAVANGER/SOLA(A, NO) observed 2220 UTC 20 January 2019
Temperature: 3.0°C (37°F)
Dewpoint: 2.0°C (36°F) [RH = 93%]
Pressure (altimeter): 29.91 inches Hg (1013.0 mb)
Winds: from the NNW (340 degrees) at 8 MPH (7 knots; 3.6 m/s)
Visibility: 6 miles ( 9 km)
Ceiling: 900 feet AGL
Clouds: broken clouds at 900 feet AGL
overcast cloud deck at 1200 feet AGL
Weather: -SHRA  (light rain showers)

METAR text: ENZV 202150Z 33016KT 7000 SHRA FEW005 BKN009 OVC017 03/01 Q1013
Conditions at: ENZV (STAVANGER/SOLA(A, NO) observed 2150 UTC 20 January 2019
Temperature: 3.0°C (37°F)
Dewpoint: 1.0°C (34°F) [RH = 87%]
Pressure (altimeter): 29.91 inches Hg (1013.0 mb)
Winds: from the NNW (330 degrees) at 18 MPH (16 knots; 8.2 m/s)
Visibility: 4 miles ( 7 km)
Ceiling: 900 feet AGL
Clouds: few clouds at 500 feet AGL
broken clouds at 900 feet AGL
overcast cloud deck at 1700 feet AGL
Weather: SHRA  (rain showers)

METAR text: ENZV 202120Z 14011KT 6000 SHRAGS FEW005 BKN009 OVC016 03/02 Q1012
Conditions at: ENZV (STAVANGER/SOLA(A, NO) observed 2120 UTC 20 January 2019
Temperature: 3.0°C (37°F)
Dewpoint: 2.0°C (36°F) [RH = 93%]
Pressure (altimeter): 29.88 inches Hg (1012.0 mb)
Winds: from the SE (140 degrees) at 13 MPH (11 knots; 5.7 m/s)
Visibility: 4 miles ( 6 km)
Ceiling: 900 feet AGL
Clouds: few clouds at 500 feet AGL
broken clouds at 900 feet AGL
overcast cloud deck at 1600 feet AGL
Weather: SHRA SHGS  (rain showers, small hail or graupel showers)

METAR text: ENZV 202050Z 14014KT 9999 -RA BKN017 BKN040 03/01 Q1012
Conditions at: ENZV (STAVANGER/SOLA(A, NO) observed 2050 UTC 20 January 2019
Temperature: 3.0°C (37°F)
Dewpoint: 1.0°C (34°F) [RH = 87%]
Pressure (altimeter): 29.88 inches Hg (1012.0 mb)
Winds: from the SE (140 degrees) at 16 MPH (14 knots; 7.2 m/s)
Visibility: 6 or more miles (10+ km)
Ceiling: 1700 feet AGL
Clouds: broken clouds at 1700 feet AGL
broken clouds at 4000 feet AGL
Weather: -RA  (light rain)

METAR text: ENZV 202020Z 17015KT 8000 -RA FEW005 BKN017 03/02 Q1012
Conditions at: ENZV (STAVANGER/SOLA(A, NO) observed 2020 UTC 20 January 2019
Temperature: 3.0°C (37°F)
Dewpoint: 2.0°C (36°F) [RH = 93%]
Pressure (altimeter): 29.88 inches Hg (1012.0 mb)
Winds: from the S (170 degrees) at 17 MPH (15 knots; 7.7 m/s)
Visibility: 5 miles ( 8 km)
Ceiling: 1700 feet AGL
Clouds: few clouds at 500 feet AGL
broken clouds at 1700 feet AGL
Weather: -RA  (light rain)

METAR text: ENZV 201950Z 17012KT 9999 -RA SCT016 BKN025 03/02 Q1013 TEMPO 4000 RA BKN007 BECMG 32008KT
Conditions at: ENZV (STAVANGER/SOLA(A, NO) observed 1950 UTC 20 January 2019
Temperature: 3.0°C (37°F)
Dewpoint: 2.0°C (36°F) [RH = 93%]
Pressure (altimeter): 29.91 inches Hg (1013.0 mb)
Winds: from the S (170 degrees) at 14 MPH (12 knots; 6.2 m/s)
Visibility: 6 or more miles (10+ km)
Ceiling: 2500 feet AGL
Clouds: scattered clouds at 1600 feet AGL
broken clouds at 2500 feet AGL
Weather: -RA  (light rain)

METAR text: ENZV 201920Z 17012KT 9999 -RA FEW014 BKN027 03/01 Q1013 TEMPO 4000 RA BKN007
Conditions at: ENZV (STAVANGER/SOLA(A, NO) observed 1920 UTC 20 January 2019
Temperature: 3.0°C (37°F)
Dewpoint: 1.0°C (34°F) [RH = 87%]
Pressure (altimeter): 29.91 inches Hg (1013.0 mb)
Winds: from the S (170 degrees) at 14 MPH (12 knots; 6.2 m/s)
Visibility: 6 or more miles (10+ km)
Ceiling: 2700 feet AGL
Clouds: few clouds at 1400 feet AGL
broken clouds at 2700 feet AGL
Weather: -RA  (light rain)

METAR text: ENZV 201850Z 17010KT 9999 -RA FEW014 BKN027 03/00 Q1013 TEMPO 4000 RA BKN007
Conditions at: ENZV (STAVANGER/SOLA(A, NO) observed 1850 UTC 20 January 2019
Temperature: 3.0°C (37°F)
Dewpoint: 0.0°C (32°F) [RH = 81%]
Pressure (altimeter): 29.91 inches Hg (1013.0 mb)
Winds: from the S (170 degrees) at 12 MPH (10 knots; 5.1 m/s)
Visibility: 6 or more miles (10+ km)
Ceiling: 2700 feet AGL
Clouds: few clouds at 1400 feet AGL
broken clouds at 2700 feet AGL
Weather: -RA  (light rain)

METAR text: ENZV 201820Z 16009KT 9999 -RA BKN030 03/00 Q1014 TEMPO BKN014
Conditions at: ENZV (STAVANGER/SOLA(A, NO) observed 1820 UTC 20 January 2019
Temperature: 3.0°C (37°F)
Dewpoint: 0.0°C (32°F) [RH = 81%]
Pressure (altimeter): 29.94 inches Hg (1014.0 mb)
Winds: from the SSE (160 degrees) at 10 MPH (9 knots; 4.6 m/s)
Visibility: 6 or more miles (10+ km)
Ceiling: 3000 feet AGL
Clouds: broken clouds at 3000 feet AGL
Weather: -RA  (light rain)

METAR text: ENZV 201750Z 16007KT 9999 SCT030 BKN045 03/00 Q1014 TEMPO BKN014
Conditions at: ENZV (STAVANGER/SOLA(A, NO) observed 1750 UTC 20 January 2019
Temperature: 3.0°C (37°F)
Dewpoint: 0.0°C (32°F) [RH = 81%]
Pressure (altimeter): 29.94 inches Hg (1014.0 mb)
Winds: from the SSE (160 degrees) at 8 MPH (7 knots; 3.6 m/s)
Visibility: 6 or more miles (10+ km)
Ceiling: 4500 feet AGL
Clouds: scattered clouds at 3000 feet AGL
broken clouds at 4500 feet AGL
Weather: no significant weather observed at this time

METAR text: ENZV 201720Z 16009KT 9999 FEW035 BKN090 03/00 Q1014 TEMPO BKN014
Conditions at: ENZV (STAVANGER/SOLA(A, NO) observed 1720 UTC 20 January 2019
Temperature: 3.0°C (37°F)
Dewpoint: 0.0°C (32°F) [RH = 81%]
Pressure (altimeter): 29.94 inches Hg (1014.0 mb)
Winds: from the SSE (160 degrees) at 10 MPH (9 knots; 4.6 m/s)
Visibility: 6 or more miles (10+ km)
Ceiling: 9000 feet AGL
Clouds: few clouds at 3500 feet AGL
broken clouds at 9000 feet AGL
Weather: no significant weather observed at this time

METAR text: ENZV 201650Z 15009KT 9999 FEW025 SCT045 SCT090 03/01 Q1014 TEMPO BKN014
Conditions at: ENZV (STAVANGER/SOLA(A, NO) observed 1650 UTC 20 January 2019
Temperature: 3.0°C (37°F)
Dewpoint: 1.0°C (34°F) [RH = 87%]
Pressure (altimeter): 29.94 inches Hg (1014.0 mb)
Winds: from the SSE (150 degrees) at 10 MPH (9 knots; 4.6 m/s)
Visibility: 6 or more miles (10+ km)
Ceiling: at least 12,000 feet AGL
Clouds: few clouds at 2500 feet AGL
scattered clouds at 4500 feet AGL
scattered clouds at 9000 feet AGL
Weather: no significant weather observed at this time

METAR text: ENZV 201620Z 15009KT 9999 FEW025 BKN045 03/01 Q1015 TEMPO BKN014
Conditions at: ENZV (STAVANGER/SOLA(A, NO) observed 1620 UTC 20 January 2019
Temperature: 3.0°C (37°F)
Dewpoint: 1.0°C (34°F) [RH = 87%]
Pressure (altimeter): 29.97 inches Hg (1015.0 mb)
Winds: from the SSE (150 degrees) at 10 MPH (9 knots; 4.6 m/s)
Visibility: 6 or more miles (10+ km)
Ceiling: 4500 feet AGL
Clouds: few clouds at 2500 feet AGL
broken clouds at 4500 feet AGL
Weather: no significant weather observed at this time

METAR text: ENZV 201550Z 16009KT 9999 FEW025 BKN045 03/01 Q1015 NOSIG
Conditions at: ENZV (STAVANGER/SOLA(A, NO) observed 1550 UTC 20 January 2019
Temperature: 3.0°C (37°F)
Dewpoint: 1.0°C (34°F) [RH = 87%]
Pressure (altimeter): 29.97 inches Hg (1015.0 mb)
Winds: from the SSE (160 degrees) at 10 MPH (9 knots; 4.6 m/s)
Visibility: 6 or more miles (10+ km)
Ceiling: 4500 feet AGL
Clouds: few clouds at 2500 feet AGL
broken clouds at 4500 feet AGL
Weather: no significant weather observed at this time

METAR text: ENZV 201520Z 15010KT 9999 FEW030 BKN050 03/01 Q1015 NOSIG
Conditions at: ENZV (STAVANGER/SOLA(A, NO) observed 1520 UTC 20 January 2019
Temperature: 3.0°C (37°F)
Dewpoint: 1.0°C (34°F) [RH = 87%]
Pressure (altimeter): 29.97 inches Hg (1015.0 mb)
Winds: from the SSE (150 degrees) at 12 MPH (10 knots; 5.1 m/s)
Visibility: 6 or more miles (10+ km)
Ceiling: 5000 feet AGL
Clouds: few clouds at 3000 feet AGL
broken clouds at 5000 feet AGL
Weather: no significant weather observed at this time

METAR text: ENZV 201450Z 15010KT 9999 FEW025 BKN030 03/01 Q1015 NOSIG
Conditions at: ENZV (STAVANGER/SOLA(A, NO) observed 1450 UTC 20 January 2019
Temperature: 3.0°C (37°F)
Dewpoint: 1.0°C (34°F) [RH = 87%]
Pressure (altimeter): 29.97 inches Hg (1015.0 mb)
Winds: from the SSE (150 degrees) at 12 MPH (10 knots; 5.1 m/s)
Visibility: 6 or more miles (10+ km)
Ceiling: 3000 feet AGL
Clouds: few clouds at 2500 feet AGL
broken clouds at 3000 feet AGL
Weather: no significant weather observed at this time

METAR text: ENZV 201420Z 16009KT 9999 FEW020 BKN030 03/01 Q1015 NOSIG
Conditions at: ENZV (STAVANGER/SOLA(A, NO) observed 1420 UTC 20 January 2019
Temperature: 3.0°C (37°F)
Dewpoint: 1.0°C (34°F) [RH = 87%]
Pressure (altimeter): 29.97 inches Hg (1015.0 mb)
Winds: from the SSE (160 degrees) at 10 MPH (9 knots; 4.6 m/s)
Visibility: 6 or more miles (10+ km)
Ceiling: 3000 feet AGL
Clouds: few clouds at 2000 feet AGL
broken clouds at 3000 feet AGL
Weather: no significant weather observed at this time

METAR text: ENZV 201350Z 16009KT 9999 FEW025 BKN040 03/01 Q1015 NOSIG
Conditions at: ENZV (STAVANGER/SOLA(A, NO) observed 1350 UTC 20 January 2019
Temperature: 3.0°C (37°F)
Dewpoint: 1.0°C (34°F) [RH = 87%]
Pressure (altimeter): 29.97 inches Hg (1015.0 mb)
Winds: from the SSE (160 degrees) at 10 MPH (9 knots; 4.6 m/s)
Visibility: 6 or more miles (10+ km)
Ceiling: 4000 feet AGL
Clouds: few clouds at 2500 feet AGL
broken clouds at 4000 feet AGL
Weather: no significant weather observed at this time

METAR text: ENZV 201320Z 16009KT 9999 FEW027 BKN045 03/01 Q1015 NOSIG
Conditions at: ENZV (STAVANGER/SOLA(A, NO) observed 1320 UTC 20 January 2019
Temperature: 3.0°C (37°F)
Dewpoint: 1.0°C (34°F) [RH = 87%]
Pressure (altimeter): 29.97 inches Hg (1015.0 mb)
Winds: from the SSE (160 degrees) at 10 MPH (9 knots; 4.6 m/s)
Visibility: 6 or more miles (10+ km)
Ceiling: 4500 feet AGL
Clouds: few clouds at 2700 feet AGL
broken clouds at 4500 feet AGL
Weather: no significant weather observed at this time

METAR text: ENZV 201250Z 16009KT 9999 SCT026 BKN047 03/01 Q1015 NOSIG
Conditions at: ENZV (STAVANGER/SOLA(A, NO) observed 1250 UTC 20 January 2019
Temperature: 3.0°C (37°F)
Dewpoint: 1.0°C (34°F) [RH = 87%]
Pressure (altimeter): 29.97 inches Hg (1015.0 mb)
Winds: from the SSE (160 degrees) at 10 MPH (9 knots; 4.6 m/s)
Visibility: 6 or more miles (10+ km)
Ceiling: 4700 feet AGL
Clouds: scattered clouds at 2600 feet AGL
broken clouds at 4700 feet AGL
Weather: no significant weather observed at this time

METAR text: ENZV 201220Z 16009KT 9999 SCT025 BKN046 03/01 Q1016 NOSIG
Conditions at: ENZV (STAVANGER/SOLA(A, NO) observed 1220 UTC 20 January 2019
Temperature: 3.0°C (37°F)
Dewpoint: 1.0°C (34°F) [RH = 87%]
Pressure (altimeter): 30.00 inches Hg (1016.0 mb)
Winds: from the SSE (160 degrees) at 10 MPH (9 knots; 4.6 m/s)
Visibility: 6 or more miles (10+ km)
Ceiling: 4600 feet AGL
Clouds: scattered clouds at 2500 feet AGL
broken clouds at 4600 feet AGL
Weather: no significant weather observed at this time

METAR text: ENZV 201150Z 15007KT 9999 SCT028 BKN049 03/01 Q1016 NOSIG
Conditions at: ENZV (STAVANGER/SOLA(A, NO) observed 1150 UTC 20 January 2019
Temperature: 3.0°C (37°F)
Dewpoint: 1.0°C (34°F) [RH = 87%]
Pressure (altimeter): 30.00 inches Hg (1016.0 mb)
Winds: from the SSE (150 degrees) at 8 MPH (7 knots; 3.6 m/s)
Visibility: 6 or more miles (10+ km)
Ceiling: 4900 feet AGL
Clouds: scattered clouds at 2800 feet AGL
broken clouds at 4900 feet AGL
Weather: no significant weather observed at this time

METAR text: ENZV 201120Z 15007KT 9999 FEW025 BKN049 03/01 Q1016 NOSIG
Conditions at: ENZV (STAVANGER/SOLA(A, NO) observed 1120 UTC 20 January 2019
Temperature: 3.0°C (37°F)
Dewpoint: 1.0°C (34°F) [RH = 87%]
Pressure (altimeter): 30.00 inches Hg (1016.0 mb)
Winds: from the SSE (150 degrees) at 8 MPH (7 knots; 3.6 m/s)
Visibility: 6 or more miles (10+ km)
Ceiling: 4900 feet AGL
Clouds: few clouds at 2500 feet AGL
broken clouds at 4900 feet AGL
Weather: no significant weather observed at this time

METAR text: ENZV 201050Z 15006KT 9999 FEW025 SCT043 BKN098 03/01 Q1016 NOSIG
Conditions at: ENZV (STAVANGER/SOLA(A, NO) observed 1050 UTC 20 January 2019
Temperature: 3.0°C (37°F)
Dewpoint: 1.0°C (34°F) [RH = 87%]
Pressure (altimeter): 30.00 inches Hg (1016.0 mb)
Winds: from the SSE (150 degrees) at 7 MPH (6 knots; 3.1 m/s)
Visibility: 6 or more miles (10+ km)
Ceiling: 9800 feet AGL
Clouds: few clouds at 2500 feet AGL
scattered clouds at 4300 feet AGL
broken clouds at 9800 feet AGL
Weather: no significant weather observed at this time

METAR text: ENZV 201020Z 14007KT 9999 FEW025 BKN045 03/01 Q1016 NOSIG
Conditions at: ENZV (STAVANGER/SOLA(A, NO) observed 1020 UTC 20 January 2019
Temperature: 3.0°C (37°F)
Dewpoint: 1.0°C (34°F) [RH = 87%]
Pressure (altimeter): 30.00 inches Hg (1016.0 mb)
Winds: from the SE (140 degrees) at 8 MPH (7 knots; 3.6 m/s)
Visibility: 6 or more miles (10+ km)
Ceiling: 4500 feet AGL
Clouds: few clouds at 2500 feet AGL
broken clouds at 4500 feet AGL
Weather: no significant weather observed at this time

METAR text: ENZV 200950Z 14006KT 9999 FEW015 SCT028 BKN040 02/01 Q1016 NOSIG
Conditions at: ENZV (STAVANGER/SOLA(A, NO) observed 0950 UTC 20 January 2019
Temperature: 2.0°C (36°F)
Dewpoint: 1.0°C (34°F) [RH = 93%]
Pressure (altimeter): 30.00 inches Hg (1016.0 mb)
Winds: from the SE (140 degrees) at 7 MPH (6 knots; 3.1 m/s)
Visibility: 6 or more miles (10+ km)
Ceiling: 4000 feet AGL
Clouds: few clouds at 1500 feet AGL
scattered clouds at 2800 feet AGL
broken clouds at 4000 feet AGL
Weather: no significant weather observed at this time

METAR text: ENZV 200920Z 17003KT 150V210 9999 FEW016 BKN053 02/M00 Q1016 NOSIG
Conditions at: ENZV (STAVANGER/SOLA(A, NO) observed 0920 UTC 20 January 2019
Temperature: 2.0°C (36°F)
Dewpoint: 0.0°C (32°F) [RH = 87%]
Pressure (altimeter): 30.00 inches Hg (1016.0 mb)
Winds: from the S (170 degrees) at 3 MPH (3 knots; 1.5 m/s)
Visibility: 6 or more miles (10+ km)
Ceiling: 5300 feet AGL
Clouds: few clouds at 1600 feet AGL
broken clouds at 5300 feet AGL
Weather: no significant weather observed at this time

METAR text: ENZV 200850Z 13007KT 9999 FEW022 SCT033 BKN048 02/00 Q1015 NOSIG
Conditions at: ENZV (STAVANGER/SOLA(A, NO) observed 0850 UTC 20 January 2019
Temperature: 2.0°C (36°F)
Dewpoint: 0.0°C (32°F) [RH = 87%]
Pressure (altimeter): 29.97 inches Hg (1015.0 mb)
Winds: from the SE (130 degrees) at 8 MPH (7 knots; 3.6 m/s)
Visibility: 6 or more miles (10+ km)
Ceiling: 4800 feet AGL
Clouds: few clouds at 2200 feet AGL
scattered clouds at 3300 feet AGL
broken clouds at 4800 feet AGL
Weather: no significant weather observed at this time

METAR text: ENZV 200820Z 13005KT 9999 FEW022 BKN031 02/00 Q1015 NOSIG
Conditions at: ENZV (STAVANGER/SOLA(A, NO) observed 0820 UTC 20 January 2019
Temperature: 2.0°C (36°F)
Dewpoint: 0.0°C (32°F) [RH = 87%]
Pressure (altimeter): 29.97 inches Hg (1015.0 mb)
Winds: from the SE (130 degrees) at 6 MPH (5 knots; 2.6 m/s)
Visibility: 6 or more miles (10+ km)
Ceiling: 3100 feet AGL
Clouds: few clouds at 2200 feet AGL
broken clouds at 3100 feet AGL
Weather: no significant weather observed at this time

METAR text: ENZV 200750Z 14006KT 9999 -RA FEW018 SCT029 BKN041 02/M00 Q1015 NOSIG
Conditions at: ENZV (STAVANGER/SOLA(A, NO) observed 0750 UTC 20 January 2019
Temperature: 2.0°C (36°F)
Dewpoint: 0.0°C (32°F) [RH = 87%]
Pressure (altimeter): 29.97 inches Hg (1015.0 mb)
Winds: from the SE (140 degrees) at 7 MPH (6 knots; 3.1 m/s)
Visibility: 6 or more miles (10+ km)
Ceiling: 4100 feet AGL
Clouds: few clouds at 1800 feet AGL
scattered clouds at 2900 feet AGL
broken clouds at 4100 feet AGL
Weather: -RA  (light rain)

METAR text: ENZV 200720Z 13007KT 9999 -RA SCT017 BKN041 02/00 Q1015 REFZRA NOSIG
Conditions at: ENZV (STAVANGER/SOLA(A, NO) observed 0720 UTC 20 January 2019
Temperature: 2.0°C (36°F)
Dewpoint: 0.0°C (32°F) [RH = 87%]
Pressure (altimeter): 29.97 inches Hg (1015.0 mb)
Winds: from the SE (130 degrees) at 8 MPH (7 knots; 3.6 m/s)
Visibility: 6 or more miles (10+ km)
Ceiling: 4100 feet AGL
Clouds: scattered clouds at 1700 feet AGL
broken clouds at 4100 feet AGL
Weather: -RA  (light rain)

METAR text: ENZV 200650Z 12007KT 9999 -RA SCT018 BKN036 02/M00 Q1015 NOSIG
Conditions at: ENZV (STAVANGER/SOLA(A, NO) observed 0650 UTC 20 January 2019
Temperature: 2.0°C (36°F)
Dewpoint: 0.0°C (32°F) [RH = 87%]
Pressure (altimeter): 29.97 inches Hg (1015.0 mb)
Winds: from the ESE (120 degrees) at 8 MPH (7 knots; 3.6 m/s)
Visibility: 6 or more miles (10+ km)
Ceiling: 3600 feet AGL
Clouds: scattered clouds at 1800 feet AGL
broken clouds at 3600 feet AGL
Weather: -RA  (light rain)

METAR text: ENZV 200620Z 12008KT 9999 -RA SCT015 BKN027 02/M00 Q1015 TEMPO 2000 SHSNRA VV012
Conditions at: ENZV (STAVANGER/SOLA(A, NO) observed 0620 UTC 20 January 2019
Temperature: 2.0°C (36°F)
Dewpoint: 0.0°C (32°F) [RH = 87%]
Pressure (altimeter): 29.97 inches Hg (1015.0 mb)
Winds: from the ESE (120 degrees) at 9 MPH (8 knots; 4.1 m/s)
Visibility: 6 or more miles (10+ km)
Ceiling: 2700 feet AGL
Clouds: scattered clouds at 1500 feet AGL
broken clouds at 2700 feet AGL
Weather: -RA  (light rain)

METAR text: ENZV 200550Z 11008KT 9999 -RA FEW015 BKN029 02/M01 Q1015 TEMPO 1500 SHSNRA VV012
Conditions at: ENZV (STAVANGER/SOLA(A, NO) observed 0550 UTC 20 January 2019
Temperature: 2.0°C (36°F)
Dewpoint: -1.0°C (30°F) [RH = 80%]
Pressure (altimeter): 29.97 inches Hg (1015.0 mb)
Winds: from the ESE (110 degrees) at 9 MPH (8 knots; 4.1 m/s)
Visibility: 6 or more miles (10+ km)
Ceiling: 2900 feet AGL
Clouds: few clouds at 1500 feet AGL
broken clouds at 2900 feet AGL
Weather: -RA  (light rain)

METAR text: ENZV 200520Z 11007KT 9999 -RA FEW015 BKN027 OVC033 01/M01 Q1015
Conditions at: ENZV (STAVANGER/SOLA(A, NO) observed 0520 UTC 20 January 2019
Temperature: 1.0°C (34°F)
Dewpoint: -1.0°C (30°F) [RH = 86%]
Pressure (altimeter): 29.97 inches Hg (1015.0 mb)
Winds: from the ESE (110 degrees) at 8 MPH (7 knots; 3.6 m/s)
Visibility: 6 or more miles (10+ km)
Ceiling: 2700 feet AGL
Clouds: few clouds at 1500 feet AGL
broken clouds at 2700 feet AGL
overcast cloud deck at 3300 feet AGL
Weather: -RA  (light rain)

METAR text: ENZV 200450Z 11007KT 9999 -RA BKN030 01/M01 Q1015
Conditions at: ENZV (STAVANGER/SOLA(A, NO) observed 0450 UTC 20 January 2019
Temperature: 1.0°C (34°F)
Dewpoint: -1.0°C (30°F) [RH = 86%]
Pressure (altimeter): 29.97 inches Hg (1015.0 mb)
Winds: from the ESE (110 degrees) at 8 MPH (7 knots; 3.6 m/s)
Visibility: 6 or more miles (10+ km)
Ceiling: 3000 feet AGL
Clouds: broken clouds at 3000 feet AGL
Weather: -RA  (light rain)

METAR text: ENZV 200420Z 12008KT 9999 SCT026 OVC033 01/M01 Q1015
Conditions at: ENZV (STAVANGER/SOLA(A, NO) observed 0420 UTC 20 January 2019
Temperature: 1.0°C (34°F)
Dewpoint: -1.0°C (30°F) [RH = 86%]
Pressure (altimeter): 29.97 inches Hg (1015.0 mb)
Winds: from the ESE (120 degrees) at 9 MPH (8 knots; 4.1 m/s)
Visibility: 6 or more miles (10+ km)
Ceiling: 3300 feet AGL
Clouds: scattered clouds at 2600 feet AGL
overcast cloud deck at 3300 feet AGL
Weather: no significant weather observed at this time

METAR text: ENZV 200350Z 13004KT 9999 OVC035 00/M01 Q1015
Conditions at: ENZV (STAVANGER/SOLA(A, NO) observed 0350 UTC 20 January 2019
Temperature: 0.0°C (32°F)
Dewpoint: -1.0°C (30°F) [RH = 93%]
Pressure (altimeter): 29.97 inches Hg (1015.0 mb)
Winds: from the SE (130 degrees) at 5 MPH (4 knots; 2.1 m/s)
Visibility: 6 or more miles (10+ km)
Ceiling: 3500 feet AGL
Clouds: overcast cloud deck at 3500 feet AGL
Weather: no significant weather observed at this time

METAR text: ENZV 200320Z 11007KT 9999 SCT028 OVC036 00/M01 Q1015
Conditions at: ENZV (STAVANGER/SOLA(A, NO) observed 0320 UTC 20 January 2019
Temperature: 0.0°C (32°F)
Dewpoint: -1.0°C (30°F) [RH = 93%]
Pressure (altimeter): 29.97 inches Hg (1015.0 mb)
Winds: from the ESE (110 degrees) at 8 MPH (7 knots; 3.6 m/s)
Visibility: 6 or more miles (10+ km)
Ceiling: 3600 feet AGL
Clouds: scattered clouds at 2800 feet AGL
overcast cloud deck at 3600 feet AGL
Weather: no significant weather observed at this time

METAR text: ENZV 200250Z 12005KT 9999 BKN026 OVC032 00/M01 Q1015
Conditions at: ENZV (STAVANGER/SOLA(A, NO) observed 0250 UTC 20 January 2019
Temperature: 0.0°C (32°F)
Dewpoint: -1.0°C (30°F) [RH = 93%]
Pressure (altimeter): 29.97 inches Hg (1015.0 mb)
Winds: from the ESE (120 degrees) at 6 MPH (5 knots; 2.6 m/s)
Visibility: 6 or more miles (10+ km)
Ceiling: 2600 feet AGL
Clouds: broken clouds at 2600 feet AGL
overcast cloud deck at 3200 feet AGL
Weather: no significant weather observed at this time

METAR text: ENZV 200220Z VRB04KT 9999 FEW030 OVC041 M00/M01 Q1015
Conditions at: ENZV (STAVANGER/SOLA(A, NO) observed 0220 UTC 20 January 2019
Temperature: 0.0°C (32°F)
Dewpoint: -1.0°C (30°F) [RH = 93%]
Pressure (altimeter): 29.97 inches Hg (1015.0 mb)
Winds: variable direction winds at 5 MPH (4 knots; 2.1 m/s)
Visibility: 6 or more miles (10+ km)
Ceiling: 4100 feet AGL
Clouds: few clouds at 3000 feet AGL
overcast cloud deck at 4100 feet AGL
Weather: no significant weather observed at this time

METAR text: ENZV 200150Z VRB02KT 9999 OVC043 M01/M02 Q1015
Conditions at: ENZV (STAVANGER/SOLA(A, NO) observed 0150 UTC 20 January 2019
Temperature: -1.0°C (30°F)
Dewpoint: -2.0°C (28°F) [RH = 93%]
Pressure (altimeter): 29.97 inches Hg (1015.0 mb)
Winds: variable direction winds at 2 MPH (2 knots; 1.0 m/s)
Visibility: 6 or more miles (10+ km)
Ceiling: 4300 feet AGL
Clouds: overcast cloud deck at 4300 feet AGL
Weather: no significant weather observed at this time

METAR text: ENZV 200120Z 13003KT 110V210 9999 OVC045 M00/M01 Q1015
Conditions at: ENZV (STAVANGER/SOLA(A, NO) observed 0120 UTC 20 January 2019
Temperature: 0.0°C (32°F)
Dewpoint: -1.0°C (30°F) [RH = 93%]
Pressure (altimeter): 29.97 inches Hg (1015.0 mb)
Winds: from the SE (130 degrees) at 3 MPH (3 knots; 1.5 m/s)
Visibility: 6 or more miles (10+ km)
Ceiling: 4500 feet AGL
Clouds: overcast cloud deck at 4500 feet AGL
Weather: no significant weather observed at this time

METAR text: ENZV 200050Z 11006KT 9999 OVC049 M01/M02 Q1015
Conditions at: ENZV (STAVANGER/SOLA(A, NO) observed 0050 UTC 20 January 2019
Temperature: -1.0°C (30°F)
Dewpoint: -2.0°C (28°F) [RH = 93%]
Pressure (altimeter): 29.97 inches Hg (1015.0 mb)
Winds: from the ESE (110 degrees) at 7 MPH (6 knots; 3.1 m/s)
Visibility: 6 or more miles (10+ km)
Ceiling: 4900 feet AGL
Clouds: overcast cloud deck at 4900 feet AGL
Weather: no significant weather observed at this time

METAR text: ENZV 200020Z 15004KT 9999 SCT053 M02/M03 Q1015
Conditions at: ENZV (STAVANGER/SOLA(A, NO) observed 0020 UTC 20 January 2019
Temperature: -2.0°C (28°F)
Dewpoint: -3.0°C (27°F) [RH = 93%]
Pressure (altimeter): 29.97 inches Hg (1015.0 mb)
Winds: from the SSE (150 degrees) at 5 MPH (4 knots; 2.1 m/s)
Visibility: 6 or more miles (10+ km)
Ceiling: at least 12,000 feet AGL
Clouds: scattered clouds at 5300 feet AGL
Weather: no significant weather observed at this time

METAR text: ENZV 192350Z 12005KT 9999 FEW076 M01/M02 Q1015
Conditions at: ENZV (STAVANGER/SOLA(A, NO) observed 2350 UTC 19 January 2019
Temperature: -1.0°C (30°F)
Dewpoint: -2.0°C (28°F) [RH = 93%]
Pressure (altimeter): 29.97 inches Hg (1015.0 mb)
Winds: from the ESE (120 degrees) at 6 MPH (5 knots; 2.6 m/s)
Visibility: 6 or more miles (10+ km)
Ceiling: at least 12,000 feet AGL
Clouds: few clouds at 7600 feet AGL
Weather: no significant weather observed at this time

METAR text: ENZV 192320Z 12006KT 9999 BKN074 M01/M02 Q1015
Conditions at: ENZV (STAVANGER/SOLA(A, NO) observed 2320 UTC 19 January 2019
Temperature: -1.0°C (30°F)
Dewpoint: -2.0°C (28°F) [RH = 93%]
Pressure (altimeter): 29.97 inches Hg (1015.0 mb)
Winds: from the ESE (120 degrees) at 7 MPH (6 knots; 3.1 m/s)
Visibility: 6 or more miles (10+ km)
Ceiling: 7400 feet AGL
Clouds: broken clouds at 7400 feet AGL
Weather: no significant weather observed at this time

METAR text: ENZV 192250Z 11006KT 090V150 9999 NSC M02/M02 Q1015
Conditions at: ENZV (STAVANGER/SOLA(A, NO) observed 2250 UTC 19 January 2019
Temperature: -2.0°C (28°F)
Dewpoint: -2.0°C (28°F) [RH = 100%]
Pressure (altimeter): 29.97 inches Hg (1015.0 mb)
Winds: from the ESE (110 degrees) at 7 MPH (6 knots; 3.1 m/s)
Visibility: 6 or more miles (10+ km)
Ceiling: at least 12,000 feet AGL
Clouds: sky clear below 12,000 feet AGL
Weather: no significant weather observed at this time

METAR text: ENZV 192220Z 12006KT 9999 FEW045 M02/M03 Q1015
Conditions at: ENZV (STAVANGER/SOLA(A, NO) observed 2220 UTC 19 January 2019
Temperature: -2.0°C (28°F)
Dewpoint: -3.0°C (27°F) [RH = 93%]
Pressure (altimeter): 29.97 inches Hg (1015.0 mb)
Winds: from the ESE (120 degrees) at 7 MPH (6 knots; 3.1 m/s)
Visibility: 6 or more miles (10+ km)
Ceiling: at least 12,000 feet AGL
Clouds: few clouds at 4500 feet AGL
Weather: no significant weather observed at this time

METAR text: ENZV 192150Z 17003KT 120V210 9999 SCT047 M01/M02 Q1014
Conditions at: ENZV (STAVANGER/SOLA(A, NO) observed 2150 UTC 19 January 2019
Temperature: -1.0°C (30°F)
Dewpoint: -2.0°C (28°F) [RH = 93%]
Pressure (altimeter): 29.94 inches Hg (1014.0 mb)
Winds: from the S (170 degrees) at 3 MPH (3 knots; 1.5 m/s)
Visibility: 6 or more miles (10+ km)
Ceiling: at least 12,000 feet AGL
Clouds: scattered clouds at 4700 feet AGL
Weather: no significant weather observed at this time

METAR text: ENZV 192120Z VRB03KT 9999 BKN048 M02/M03 Q1014
Conditions at: ENZV (STAVANGER/SOLA(A, NO) observed 2120 UTC 19 January 2019
Temperature: -2.0°C (28°F)
Dewpoint: -3.0°C (27°F) [RH = 93%]
Pressure (altimeter): 29.94 inches Hg (1014.0 mb)
Winds: variable direction winds at 3 MPH (3 knots; 1.5 m/s)
Visibility: 6 or more miles (10+ km)
Ceiling: 4800 feet AGL
Clouds: broken clouds at 4800 feet AGL
Weather: no significant weather observed at this time

METAR text: ENZV 192050Z 13004KT 9999 BKN047 M01/M02 Q1014
Conditions at: ENZV (STAVANGER/SOLA(A, NO) observed 2050 UTC 19 January 2019
Temperature: -1.0°C (30°F)
Dewpoint: -2.0°C (28°F) [RH = 93%]
Pressure (altimeter): 29.94 inches Hg (1014.0 mb)
Winds: from the SE (130 degrees) at 5 MPH (4 knots; 2.1 m/s)
Visibility: 6 or more miles (10+ km)
Ceiling: 4700 feet AGL
Clouds: broken clouds at 4700 feet AGL
Weather: no significant weather observed at this time

METAR text: ENZV 192020Z VRB01KT 9999 BKN055 M01/M03 Q1014
Conditions at: ENZV (STAVANGER/SOLA(A, NO) observed 2020 UTC 19 January 2019
Temperature: -1.0°C (30°F)
Dewpoint: -3.0°C (27°F) [RH = 86%]
Pressure (altimeter): 29.94 inches Hg (1014.0 mb)
Winds: variable direction winds at 1 MPH (1 knots; 0.5 m/s)
Visibility: 6 or more miles (10+ km)
Ceiling: 5500 feet AGL
Clouds: broken clouds at 5500 feet AGL
Weather: no significant weather observed at this time

METAR text: ENZV 191950Z 13004KT 100V170 9999 FEW020 SCT053 M00/M01 Q1014 NOSIG
Conditions at: ENZV (STAVANGER/SOLA(A, NO) observed 1950 UTC 19 January 2019
Temperature: 0.0°C (32°F)
Dewpoint: -1.0°C (30°F) [RH = 93%]
Pressure (altimeter): 29.94 inches Hg (1014.0 mb)
Winds: from the SE (130 degrees) at 5 MPH (4 knots; 2.1 m/s)
Visibility: 6 or more miles (10+ km)
Ceiling: at least 12,000 feet AGL
Clouds: few clouds at 2000 feet AGL
scattered clouds at 5300 feet AGL
Weather: no significant weather observed at this time

METAR text: ENZV 191920Z 13008KT 9999 FEW030 SCT061 M00/M02 Q1014 NOSIG
Conditions at: ENZV (STAVANGER/SOLA(A, NO) observed 1920 UTC 19 January 2019
Temperature: 0.0°C (32°F)
Dewpoint: -2.0°C (28°F) [RH = 86%]
Pressure (altimeter): 29.94 inches Hg (1014.0 mb)
Winds: from the SE (130 degrees) at 9 MPH (8 knots; 4.1 m/s)
Visibility: 6 or more miles (10+ km)
Ceiling: at least 12,000 feet AGL
Clouds: few clouds at 3000 feet AGL
scattered clouds at 6100 feet AGL
Weather: no significant weather observed at this time

METAR text: ENZV 191850Z 13007KT 9999 FEW020 SCT030 M01/M02 Q1014 NOSIG
Conditions at: ENZV (STAVANGER/SOLA(A, NO) observed 1850 UTC 19 January 2019
Temperature: -1.0°C (30°F)
Dewpoint: -2.0°C (28°F) [RH = 93%]
Pressure (altimeter): 29.94 inches Hg (1014.0 mb)
Winds: from the SE (130 degrees) at 8 MPH (7 knots; 3.6 m/s)
Visibility: 6 or more miles (10+ km)
Ceiling: at least 12,000 feet AGL
Clouds: few clouds at 2000 feet AGL
scattered clouds at 3000 feet AGL
Weather: no significant weather observed at this time

METAR text: ENZV 191820Z 12006KT 9999 FEW020 SCT035 M00/M01 Q1014 NOSIG
Conditions at: ENZV (STAVANGER/SOLA(A, NO) observed 1820 UTC 19 January 2019
Temperature: 0.0°C (32°F)
Dewpoint: -1.0°C (30°F) [RH = 93%]
Pressure (altimeter): 29.94 inches Hg (1014.0 mb)
Winds: from the ESE (120 degrees) at 7 MPH (6 knots; 3.1 m/s)
Visibility: 6 or more miles (10+ km)
Ceiling: at least 12,000 feet AGL
Clouds: few clouds at 2000 feet AGL
scattered clouds at 3500 feet AGL
Weather: no significant weather observed at this time

METAR text: ENZV 191750Z 13006KT 9999 FEW025 BKN057 M00/M01 Q1014 NOSIG
Conditions at: ENZV (STAVANGER/SOLA(A, NO) observed 1750 UTC 19 January 2019
Temperature: 0.0°C (32°F)
Dewpoint: -1.0°C (30°F) [RH = 93%]
Pressure (altimeter): 29.94 inches Hg (1014.0 mb)
Winds: from the SE (130 degrees) at 7 MPH (6 knots; 3.1 m/s)
Visibility: 6 or more miles (10+ km)
Ceiling: 5700 feet AGL
Clouds: few clouds at 2500 feet AGL
broken clouds at 5700 feet AGL
Weather: no significant weather observed at this time

METAR text: ENZV 191720Z 13006KT 9999 FEW025 SCT035 M00/M01 Q1014 NOSIG
Conditions at: ENZV (STAVANGER/SOLA(A, NO) observed 1720 UTC 19 January 2019
Temperature: 0.0°C (32°F)
Dewpoint: -1.0°C (30°F) [RH = 93%]
Pressure (altimeter): 29.94 inches Hg (1014.0 mb)
Winds: from the SE (130 degrees) at 7 MPH (6 knots; 3.1 m/s)
Visibility: 6 or more miles (10+ km)
Ceiling: at least 12,000 feet AGL
Clouds: few clouds at 2500 feet AGL
scattered clouds at 3500 feet AGL
Weather: no significant weather observed at this time

Forecast for: ENZV (STAVANGER/SOLA(A, NO)
Text: TAF ENZV 2100/2124 34012KT 9999 -SHRA FEW020 BKN040
Forecast period: 0000 to 0800 UTC 21 January 2019
Forecast type: FROM: standard forecast or significant change
Winds: from the NNW (340 degrees) at 14 MPH (12 knots; 6.2 m/s)
Visibility: 6 or more miles 10+ km)
Ceiling: 4000 feet AGL
Clouds: few clouds at 2000 feet AGL
broken clouds at 4000 feet AGL
Weather: -SHRA  (light rain showers)
Text: TEMPO 2100/2107 33015G25KT SHRA BKN012 SCT018CB
Forecast period: 0000 to 0700 UTC 21 January 2019
Forecast type: TEMPORARY: The following changes expected for less than half the time period
Winds: from the NNW (330 degrees) at 17 MPH (15 knots; 7.7 m/s)
gusting to 29 MPH (25 knots; 12.9 m/s)
Visibility: missing
Ceiling: 1200 feet AGL
Clouds: broken clouds at 1200 feet AGL
scattered clouds at 1800 feet AGL
Weather: SHRA  (rain showers)
Text: BECMG 2108/2111 VRB05KT
Forecast period: 0800 to 2000 UTC 21 January 2019
Forecast type: BECOMING: Conditions expected to become as follows by 1100 UTC 21 January 2019
Winds: variable direction winds at 6 MPH (5 knots; 2.6 m/s)
Visibility: 6 or more miles 10+ km)
Ceiling: 4000 feet AGL
Clouds: few clouds at 2000 feet AGL
broken clouds at 4000 feet AGL
Weather: -SHRA  (light rain showers)
Text: BECMG 2120/2122 16010KT
Forecast period: 2000 UTC 21 January 2019 to 0000 UTC 22 January 2019
Forecast type: BECOMING: Conditions expected to become as follows by 2200 UTC 21 January 2019
Winds: from the SSE (160 degrees) at 12 MPH (10 knots; 5.1 m/s)
Visibility: 6 or more miles 10+ km)
Ceiling: 4000 feet AGL
Clouds: few clouds at 2000 feet AGL
broken clouds at 4000 feet AGL
Weather: -SHRA  (light rain showers)